Details From MNMG - Managua Intl
To MGGT - Guatemala
Flight Number -
Tags generated
Created
Modified
Stats Distance 132 nm / 244 km
Max Altitude 14,300 ft / 4,359 m
Waypoints 3
Social Downloads 1
Likes 0
Share VATSIM

Download

Looking for another format? Having issues loading an existing format? Contact us
Advertisement - Login to hide

Notes

Basic altitude profile: - Ascent Rate: 2500ft/min - Ascent Speed: 250kts - Cruise Altitude: 30000ft - Cruise Speed: 420kts - Descent Rate: 1500ft/min - Descent Speed: 250kts

Route

MNMG BERTA MHTG

ID Type Via Altitude Latitude Longitude Leg Dist Tot Dist Heading (true) Name
O MNMG APT - 0 ft / 0 m 12.14149˚ -86.16818˚ - 0 nm - Managua Intl
BERTA FIX - 14,300 ft / 4,359 m 12.95000˚ -86.77333˚ 60 nm 60 nm 324° / 324° -
O MHTG APT - 0 ft / 0 m 14.06088˚ -87.21720˚ 71 nm 131 nm 339° / 339° Tegucigalpa Toncontin Intl

Altitude Profile

Advertisement - Login to hide

MNMG

Details ICAO MNMG (MGA)
Name Managua Intl
Region Nicaragua
Timezone America/Managua (UTC-6.0)
Stats Elevation 194 ft / 59 m (AMSL)
Location 12.141493° -86.168178°
Runways 1
Magnetic Variation 1.007° W

METAR

MNMG 222000Z 36004KT 8000 TS FEW022CB SCT300 30/23 Q1007 A2976 CB/E/S/W TCU/SW FU NOSIG

Decode

TAF

Not found

Departure Runways

ID Width Length Bearing (true) Bearing (mag) Surface Threshold Offset Overrun Length
09 148 ft / 45 m 8,008 ft / 2,441 m 96.54° 97.55° Asphalt 0 ft / 0 m 100 ft / 30 m
27 148 ft / 45 m 8,008 ft / 2,441 m 276.55° 277.56° Asphalt 0 ft / 0 m 100 ft / 30 m

MGGT

Details ICAO MGGT (GUA)
Name La Aurora
Region Guatemala
Timezone America/Guatemala (UTC-6.0)
Stats Elevation 4,952 ft / 1,509 m (AMSL)
Location 14.583272° -90.527473°
Runways 1
Magnetic Variation 1.011° E

METAR

MGGT 222000Z 03010KT 9999 FEW022TCU FEW024CB SCT080 24/15 Q1021 A3015 CB S/SW/SWS TCU ENE/SE/SSE

Decode

TAF

TAF MGGT 221700Z 2218/2318 03006KT 9999 SCT018 SCT090 TX27/2220Z TN18/2312Z PROB40 TEMPO 2219/2310 18012KT 7000 TSRA SCT020TCU FEW025CB BECMG 2301/2303 36008KT BKN014 TEMPO 2310/2315 VRB03KT 5000 BR DZ BKN012 BECMG 2315/2317 18006KT FEW018

Decode

Destination Runways

ID Width Length Bearing (true) Bearing (mag) Surface Threshold Offset Overrun Length
01 196 ft / 60 m 9,841 ft / 3,000 m 17.29° 16.28° Asphalt 0 ft / 0 m 0 ft / 0 m
19 196 ft / 60 m 9,841 ft / 3,000 m 197.29° 196.28° Asphalt 722 ft / 220 m 0 ft / 0 m

Approach Navaids

Runway Type Ident Frequency Range Bearing (true) Bearing (mag) Slope Elevation
01 Localiser IAAI 110.10 MHz 18 nm / 33 km 17.36° 16.35° - 4,952 ft / 1,509 m (AMSL)
01 Glidescope IAAI 110.10 MHz 10 nm / 19 km 17.29° 16.28° 3.00° 4,952 ft / 1,509 m (AMSL)
01 DME IAAI 110.10 MHz 18 nm / 33 km - - - 4,952 ft / 1,509 m (AMSL)

Popular Alternatives